createdAt,value
2019-04-28T00:01:23.084Z,87099.16
2019-04-28T00:03:51.558Z,87093.75
2019-04-28T00:06:18.345Z,87091.68
2019-04-28T00:08:45.209Z,87087.69
2019-04-28T00:11:11.931Z,87081.15
2019-04-28T00:13:38.679Z,87084.38
2019-04-28T00:16:05.417Z,87084.88
2019-04-28T00:18:32.147Z,87077.59
2019-04-28T00:21:00.843Z,87077.09
2019-04-28T00:23:27.543Z,87074.33
2019-04-28T00:25:54.274Z,87074.73
2019-04-28T00:28:21.269Z,87079.42
2019-04-28T00:30:48.112Z,87074.95
2019-04-28T00:33:14.973Z,87074.73
2019-04-28T00:35:41.893Z,87075.76
2019-04-28T00:38:08.659Z,87079.14
2019-04-28T00:40:35.512Z,87074.94
2019-04-28T00:43:02.241Z,87073.16
2019-04-28T00:45:28.963Z,87067.92
2019-04-28T00:47:55.779Z,87065.20
2019-04-28T00:50:22.538Z,87062.59
2019-04-28T00:52:49.432Z,87057.58
2019-04-28T00:55:16.152Z,87057.03
2019-04-28T00:57:42.876Z,87054.67
2019-04-28T01:00:11.589Z,87056.57
2019-04-28T01:02:38.475Z,87054.97
2019-04-28T01:05:07.231Z,87058.14
2019-04-28T01:07:34.202Z,87058.14
2019-04-28T01:10:01.496Z,87061.16
2019-04-28T01:12:28.371Z,87059.70
2019-04-28T01:14:57.289Z,87055.62
2019-04-28T01:17:23.739Z,87051.41
2019-04-28T01:19:51.435Z,87054.22
2019-04-28T01:22:19.988Z,87049.56
2019-04-28T01:24:46.918Z,87053.67
2019-04-28T01:27:13.887Z,87051.81
2019-04-28T01:29:40.591Z,87063.08
2019-04-28T01:32:07.339Z,87051.92
2019-04-28T01:34:34.178Z,87052.13
2019-04-28T01:37:00.933Z,87052.42
2019-04-28T01:39:29.598Z,87042.88
2019-04-28T01:41:56.228Z,87042.88
2019-04-28T01:44:22.960Z,87036.19
2019-04-28T01:46:50.986Z,87035.46
2019-04-28T01:49:19.435Z,87027.67
2019-04-28T01:51:57.335Z,87032.03
2019-04-28T01:54:24.220Z,87033.20
2019-04-28T01:56:51.018Z,87025.89
2019-04-28T01:59:17.757Z,87031.38
2019-04-28T02:01:44.520Z,87025.20
2019-04-28T02:04:11.282Z,87025.49
2019-04-28T02:06:39.872Z,87021.87
2019-04-28T02:09:09.621Z,87024.05
2019-04-28T02:11:36.467Z,87025.20
2019-04-28T02:14:03.450Z,87020.92
2019-04-28T02:16:30.162Z,87023.23
2019-04-28T02:18:57.035Z,87020.51
2019-04-28T02:21:23.768Z,87021.30
2019-04-28T02:23:51.425Z,87018.39
2019-04-28T02:26:19.581Z,87025.54
2019-04-28T02:28:46.393Z,87019.11
2019-04-28T02:31:13.109Z,87027.56
2019-04-28T02:33:40.850Z,87022.69
2019-04-28T02:36:09.702Z,87024.50
2019-04-28T02:38:36.315Z,87027.15
2019-04-28T02:41:03.094Z,87029.65
2019-04-28T02:43:30.773Z,87034.64
2019-04-28T02:46:00.560Z,87043.45
2019-04-28T02:48:27.029Z,87040.44
2019-04-28T02:50:53.751Z,87054.22
2019-04-28T02:53:21.196Z,87053.63
2019-04-28T02:55:48.061Z,87067.28
2019-04-28T02:58:14.804Z,87071.72
2019-04-28T03:01:00.470Z,87071.39
2019-04-28T03:03:11.032Z,87074.45
2019-04-28T03:05:41.007Z,87076.11
2019-04-28T03:08:06.675Z,87077.83
2019-04-28T03:10:33.395Z,87077.48
2019-04-28T03:13:01.217Z,87090.22
2019-04-28T03:15:30.312Z,87089.13
2019-04-28T03:17:56.751Z,87097.92
2019-04-28T03:20:23.620Z,87100.13
2019-04-28T03:22:51.045Z,87101.59
2019-04-28T03:25:20.342Z,87105.08
2019-04-28T03:27:46.626Z,87106.67
2019-04-28T03:30:13.768Z,87108.93
2019-04-28T03:32:52.188Z,87110.92
2019-04-28T03:35:12.828Z,87114.35
2019-04-28T03:37:37.689Z,87121.66
2019-04-28T03:40:05.690Z,87125.48
2019-04-28T03:42:32.427Z,87128.19
2019-04-28T03:45:01.064Z,87130.45
2019-04-28T03:47:30.841Z,87138.28
2019-04-28T03:49:56.343Z,87140.48
2019-04-28T03:52:23.180Z,87146.61
2019-04-28T03:54:50.827Z,87145.24
2019-04-28T03:57:17.971Z,87151.42
2019-04-28T03:59:44.742Z,87156.02
2019-04-28T04:02:11.743Z,87160.05
2019-04-28T04:04:41.509Z,87169.81
2019-04-28T04:07:10.838Z,87184.72
2019-04-28T04:09:36.973Z,87192.42
2019-04-28T04:12:03.843Z,87180.00
2019-04-28T04:14:31.075Z,87164.11
2019-04-28T04:17:00.182Z,87151.69
2019-04-28T04:19:27.068Z,87153.53
2019-04-28T04:21:53.795Z,87161.80
2019-04-28T04:24:20.670Z,87183.36
2019-04-28T04:26:47.781Z,87192.26
2019-04-28T04:29:14.522Z,87194.11
2019-04-28T04:31:41.533Z,87187.84
2019-04-28T04:34:10.712Z,87174.66
2019-04-28T04:36:36.872Z,87173.89
2019-04-28T04:39:05.936Z,87172.78
2019-04-28T04:41:32.691Z,87179.31
2019-04-28T04:44:01.193Z,87181.12
2019-04-28T04:46:31.143Z,87172.05
2019-04-28T04:48:57.132Z,87183.19
2019-04-28T04:51:23.896Z,87185.19
2019-04-28T04:53:51.222Z,87191.99
2019-04-28T04:56:21.015Z,87199.83
2019-04-28T04:58:50.453Z,87201.13
2019-04-28T05:01:17.412Z,87207.66
2019-04-28T05:03:44.273Z,87216.83
2019-04-28T05:06:11.033Z,87222.31
2019-04-28T05:08:37.782Z,87219.57
2019-04-28T05:11:04.651Z,87214.45
2019-04-28T05:13:31.399Z,87220.43
2019-04-28T05:15:59.773Z,87231.48
2019-04-28T05:18:26.687Z,87229.85
2019-04-28T05:20:53.420Z,87216.83
2019-04-28T05:23:20.145Z,87228.45
2019-04-28T05:25:46.973Z,87236.41
2019-04-28T05:28:13.699Z,87250.09
2019-04-28T05:30:43.033Z,87256.87
2019-04-28T05:33:10.474Z,87259.78
2019-04-28T05:35:37.267Z,87257.13
2019-04-28T05:38:04.151Z,87248.28
2019-04-28T05:40:30.852Z,87242.39
2019-04-28T05:42:57.589Z,87248.50
2019-04-28T05:45:28.466Z,87249.05
2019-04-28T05:47:56.899Z,87252.61
2019-04-28T05:50:23.645Z,87257.25
2019-04-28T05:52:52.331Z,87252.62
2019-04-28T05:55:20.417Z,87258.45
2019-04-28T05:57:47.502Z,87265.98
2019-04-28T06:00:14.896Z,87269.06
2019-04-28T06:02:54.221Z,87265.14
2019-04-28T06:05:10.252Z,87257.44
2019-04-28T06:07:37.177Z,87259.70
2019-04-28T06:10:07.132Z,87260.56
2019-04-28T06:12:33.853Z,87260.77
2019-04-28T06:15:00.949Z,87270.31
2019-04-28T06:17:29.390Z,87271.42
2019-04-28T06:19:56.207Z,87266.52
2019-04-28T06:22:23.214Z,87262.19
2019-04-28T06:24:49.933Z,87262.19
2019-04-28T06:27:16.807Z,87257.54
2019-04-28T06:29:43.534Z,87255.59
2019-04-28T06:32:10.541Z,87260.47
2019-04-28T06:34:37.348Z,87262.31
2019-04-28T06:37:04.072Z,87263.50
2019-04-28T06:39:30.952Z,87261.11
2019-04-28T06:41:57.713Z,87262.12
2019-04-28T06:44:24.439Z,87266.57
2019-04-28T06:46:51.387Z,87262.59
2019-04-28T06:49:18.115Z,87265.63
2019-04-28T06:51:44.843Z,87264.03
2019-04-28T06:54:12.737Z,87260.34
2019-04-28T06:56:39.447Z,87263.49
2019-04-28T06:59:06.148Z,87261.23
2019-04-28T07:01:32.912Z,87260.34
2019-04-28T07:03:59.654Z,87257.95
2019-04-28T07:06:26.514Z,87247.38
2019-04-28T07:08:53.302Z,87253.77
2019-04-28T07:11:20.052Z,87256.50
2019-04-28T07:13:46.795Z,87257.73
2019-04-28T07:16:15.354Z,87256.02
2019-04-28T07:18:42.197Z,87261.65
2019-04-28T07:21:08.929Z,87259.92
2019-04-28T07:23:35.663Z,87267.88
2019-04-28T07:26:02.738Z,87269.84
2019-04-28T07:28:29.472Z,87273.25
2019-04-28T07:31:00.894Z,87265.20
2019-04-28T07:33:35.867Z,87260.29
2019-04-28T07:35:56.202Z,87253.11
2019-04-28T07:38:23.115Z,87252.86
2019-04-28T07:40:49.890Z,87251.98
2019-04-28T07:43:16.592Z,87255.13
2019-04-28T07:45:43.435Z,87254.29
2019-04-28T07:48:10.166Z,87251.56
2019-04-28T07:50:36.886Z,87247.30
2019-04-28T07:53:03.792Z,87244.57
2019-04-28T07:55:30.507Z,87241.32
2019-04-28T07:57:57.243Z,87241.55
2019-04-28T08:00:24.092Z,87251.44
2019-04-28T08:02:50.934Z,87249.25
2019-04-28T08:05:17.675Z,87254.17
2019-04-28T08:07:46.711Z,87252.17
2019-04-28T08:10:19.196Z,87253.75
2019-04-28T08:12:45.981Z,87261.11
2019-04-28T08:15:12.822Z,87257.27
2019-04-28T08:17:39.589Z,87271.72
2019-04-28T08:20:07.360Z,87264.73
2019-04-28T08:22:34.131Z,87277.47
2019-04-28T08:25:00.829Z,87272.91
2019-04-28T08:27:27.701Z,87277.80
2019-04-28T08:29:58.734Z,87281.42
2019-04-28T08:32:23.156Z,87275.33
2019-04-28T08:34:49.906Z,87280.80
2019-04-28T08:37:16.726Z,87283.06
2019-04-28T08:39:43.609Z,87284.54
2019-04-28T08:42:10.347Z,87289.23
2019-04-28T08:44:37.059Z,87287.42
2019-04-28T08:47:03.936Z,87292.33
2019-04-28T08:49:30.652Z,87299.14
2019-04-28T08:51:57.378Z,87294.90
2019-04-28T08:54:24.148Z,87302.28
2019-04-28T08:56:50.876Z,87304.13
2019-04-28T08:59:17.690Z,87304.98
2019-04-28T09:01:44.419Z,87298.44
2019-04-28T09:04:15.440Z,87297.23
2019-04-28T09:06:39.739Z,87302.77
2019-04-28T09:09:06.521Z,87296.29
2019-04-28T09:11:33.246Z,87290.42
2019-04-28T09:14:00.105Z,87292.38
2019-04-28T09:16:26.827Z,87289.14
2019-04-28T09:18:53.559Z,87297.61
2019-04-28T09:21:20.402Z,87293.39
2019-04-28T09:23:47.150Z,87298.62
2019-04-28T09:26:16.162Z,87298.63
2019-04-28T09:28:43.060Z,87293.75
2019-04-28T09:31:09.898Z,87291.47
2019-04-28T09:33:43.334Z,87291.89
2019-04-28T09:36:11.016Z,87297.20
2019-04-28T09:38:39.573Z,87294.89
2019-04-28T09:41:06.442Z,87285.76
2019-04-28T09:43:33.666Z,87290.41
2019-04-28T09:46:00.429Z,87282.70
2019-04-28T09:48:27.855Z,87281.91
2019-04-28T09:50:54.564Z,87277.43
2019-04-28T09:53:21.516Z,87278.39
2019-04-28T09:55:48.387Z,87277.51
2019-04-28T09:58:15.135Z,87275.44
2019-04-28T10:00:42.014Z,87275.44
2019-04-28T10:03:08.995Z,87276.05
2019-04-28T10:05:35.777Z,87268.00
2019-04-28T10:08:02.968Z,87265.63
2019-04-28T10:10:29.841Z,87267.66
2019-04-28T10:12:56.592Z,87275.89
2019-04-28T10:15:23.788Z,87279.87
2019-04-28T10:17:50.523Z,87276.39
2019-04-28T10:20:17.552Z,87277.38
2019-04-28T10:22:44.322Z,87271.83
2019-04-28T10:25:11.353Z,87274.97
2019-04-28T10:27:38.144Z,87279.45
2019-04-28T10:30:08.133Z,87275.39
2019-04-28T10:32:34.882Z,87277.16
2019-04-28T10:35:01.773Z,87270.88
2019-04-28T10:37:28.675Z,87266.66
2019-04-28T10:39:55.398Z,87257.61
2019-04-28T10:42:22.276Z,87251.51
2019-04-28T10:44:49.073Z,87244.25
2019-04-28T10:47:16.814Z,87245.86
2019-04-28T10:49:43.649Z,87241.26
2019-04-28T10:52:10.527Z,87239.94
2019-04-28T10:54:37.321Z,87239.25
2019-04-28T10:57:15.061Z,87232.83
2019-04-28T10:59:41.886Z,87236.33
2019-04-28T11:02:09.040Z,87235.56
2019-04-28T11:04:36.079Z,87228.80
2019-04-28T11:07:03.256Z,87229.41
2019-04-28T11:09:31.048Z,87224.61
2019-04-28T11:12:01.288Z,87228.70
2019-04-28T11:14:29.703Z,87224.59
2019-04-28T11:16:56.461Z,87220.97
2019-04-28T11:19:23.622Z,87225.25
2019-04-28T11:21:50.618Z,87227.27
2019-04-28T11:24:17.408Z,87218.97
2019-04-28T11:26:44.240Z,87216.11
2019-04-28T11:29:13.085Z,87214.49
2019-04-28T11:31:39.972Z,87212.49
2019-04-28T11:34:06.727Z,87213.48
2019-04-28T11:36:33.599Z,87215.20
2019-04-28T11:39:00.343Z,87211.89
2019-04-28T11:41:27.079Z,87214.31
2019-04-28T11:43:53.853Z,87211.98
2019-04-28T11:46:20.595Z,87209.57
2019-04-28T11:48:47.472Z,87209.13
2019-04-28T11:51:14.207Z,87208.23
2019-04-28T11:53:40.966Z,87203.97
2019-04-28T11:56:07.833Z,87204.36
2019-04-28T11:58:34.572Z,87203.75
2019-04-28T12:01:01.308Z,87201.97
2019-04-28T12:03:28.199Z,87204.16
2019-04-28T12:05:54.947Z,87190.77
2019-04-28T12:08:21.692Z,87181.85
2019-04-28T12:10:50.080Z,87188.09
2019-04-28T12:13:17.181Z,87186.37
2019-04-28T12:16:03.980Z,87188.18
2019-04-28T12:18:30.716Z,87182.30
2019-04-28T12:20:57.460Z,87173.23
2019-04-28T12:23:24.355Z,87177.69
2019-04-28T12:25:51.111Z,87181.02
2019-04-28T12:28:17.858Z,87175.20
2019-04-28T12:30:44.737Z,87184.33
2019-04-28T12:33:11.549Z,87183.14
2019-04-28T12:35:47.559Z,87177.93
2019-04-28T12:38:06.850Z,87168.52
2019-04-28T12:40:33.571Z,87166.98
2019-04-28T12:43:00.303Z,87164.91
2019-04-28T12:45:34.764Z,87160.71
2019-04-28T12:47:55.825Z,87159.27
2019-04-28T12:50:22.582Z,87155.02
2019-04-28T12:52:49.448Z,87145.95
2019-04-28T12:55:16.158Z,87148.44
2019-04-28T12:57:42.928Z,87145.63
2019-04-28T13:00:10.222Z,87143.86
2019-04-28T13:02:36.947Z,87141.38
2019-04-28T13:05:04.394Z,87141.38
2019-04-28T13:07:31.171Z,87143.77
2019-04-28T13:09:57.930Z,87140.07
2019-04-28T13:12:24.731Z,87137.97
2019-04-28T13:14:51.945Z,87141.56
2019-04-28T13:17:18.675Z,87143.18
2019-04-28T13:19:45.403Z,87132.44
2019-04-28T13:22:12.204Z,87133.09
2019-04-28T13:24:38.954Z,87136.47
2019-04-28T13:27:06.722Z,87141.88
2019-04-28T13:29:33.505Z,87138.83
2019-04-28T13:32:00.383Z,87134.53
2019-04-28T13:34:27.120Z,87125.53
2019-04-28T13:36:54.567Z,87129.73
2019-04-28T13:39:21.286Z,87122.89
2019-04-28T13:41:47.979Z,87124.98
2019-04-28T13:44:14.988Z,87123.56
2019-04-28T13:46:41.814Z,87119.48
2019-04-28T13:49:08.609Z,87114.81
2019-04-28T13:51:35.428Z,87109.81
2019-04-28T13:54:02.149Z,87106.06
2019-04-28T13:56:28.886Z,87103.17
2019-04-28T13:58:55.901Z,87103.66
2019-04-28T14:01:22.665Z,87104.29
2019-04-28T14:03:49.513Z,87102.03
2019-04-28T14:06:27.598Z,87099.14
2019-04-28T14:08:44.898Z,87094.14
2019-04-28T14:11:11.628Z,87098.47
2019-04-28T14:13:38.584Z,87092.48
2019-04-28T14:16:05.345Z,87087.12
2019-04-28T14:18:32.074Z,87085.91
2019-04-28T14:20:59.214Z,87084.06
2019-04-28T14:23:25.953Z,87078.50
2019-04-28T14:25:52.723Z,87074.94
2019-04-28T14:28:19.597Z,87072.33
2019-04-28T14:30:46.350Z,87076.91
2019-04-28T14:33:14.980Z,87076.69
2019-04-28T14:35:41.745Z,87076.84
2019-04-28T14:38:08.456Z,87072.84
2019-04-28T14:40:35.226Z,87074.14
2019-04-28T14:43:02.227Z,87072.08
2019-04-28T14:45:28.947Z,87070.77
2019-04-28T14:47:59.658Z,87071.19
2019-04-28T14:50:29.025Z,87078.94
2019-04-28T14:53:01.734Z,87079.95
2019-04-28T14:55:28.504Z,87075.70
2019-04-28T14:57:56.054Z,87075.70
2019-04-28T15:00:23.030Z,87071.59
2019-04-28T15:02:49.702Z,87066.89
2019-04-28T15:05:16.487Z,87070.92
2019-04-28T15:07:43.227Z,87069.20
2019-04-28T15:10:10.652Z,87069.94
2019-04-28T15:12:37.583Z,87077.27
2019-04-28T15:15:05.808Z,87067.70
2019-04-28T15:17:32.549Z,87062.72
2019-04-28T15:19:59.446Z,87066.53
2019-04-28T15:22:26.191Z,87065.50
2019-04-28T15:24:52.912Z,87057.56
2019-04-28T15:27:19.728Z,87061.84
2019-04-28T15:29:46.460Z,87076.41
2019-04-28T15:32:13.235Z,87068.56
2019-04-28T15:34:40.085Z,87061.34
2019-04-28T15:37:27.892Z,87058.97
2019-04-28T15:39:54.733Z,87058.63
2019-04-28T15:42:21.533Z,87058.84
2019-04-28T15:44:48.307Z,87065.03
2019-04-28T15:47:15.099Z,87065.40
2019-04-28T15:49:41.847Z,87061.79
2019-04-28T15:52:28.452Z,87059.48
2019-04-28T15:54:55.207Z,87057.52
2019-04-28T15:57:21.933Z,87057.86
2019-04-28T15:59:48.801Z,87056.38
2019-04-28T16:02:15.542Z,87051.11
2019-04-28T16:04:42.261Z,87045.48
2019-04-28T16:07:09.177Z,87045.84
2019-04-28T16:09:35.894Z,87046.73
2019-04-28T16:12:02.641Z,87042.86
2019-04-28T16:14:29.634Z,87039.17
2019-04-28T16:16:56.886Z,87047.18
2019-04-28T16:19:23.678Z,87044.00
2019-04-28T16:21:50.767Z,87043.23
2019-04-28T16:24:17.484Z,87038.84
2019-04-28T16:26:44.209Z,87035.60
2019-04-28T16:29:11.007Z,87039.47
2019-04-28T16:31:37.757Z,87039.22
2019-04-28T16:34:04.494Z,87033.98
2019-04-28T16:36:31.342Z,87034.59
2019-04-28T16:38:58.063Z,87035.06
2019-04-28T16:41:26.686Z,87044.25
2019-04-28T16:43:53.487Z,87050.63
2019-04-28T16:46:20.246Z,87053.42
2019-04-28T16:48:47.219Z,87039.38
2019-04-28T16:51:14.720Z,87049.02
2019-04-28T16:53:41.527Z,87050.92
2019-04-28T16:56:08.263Z,87054.11
2019-04-28T16:58:35.154Z,87050.04
2019-04-28T17:01:01.889Z,87059.31
2019-04-28T17:03:29.797Z,87054.13
2019-04-28T17:05:56.691Z,87057.08
2019-04-28T17:08:23.447Z,87060.23
2019-04-28T17:10:50.173Z,87057.72
2019-04-28T17:13:17.009Z,87071.31
2019-04-28T17:15:43.770Z,87069.28
2019-04-28T17:18:10.614Z,87072.48
2019-04-28T17:20:37.469Z,87066.33
2019-04-28T17:23:04.433Z,87055.91
2019-04-28T17:25:32.383Z,87063.55
2019-04-28T17:30:57.719Z,87075.82
2019-04-28T17:33:24.657Z,87075.23
2019-04-28T17:35:51.428Z,87070.02
2019-04-28T17:38:18.170Z,87080.79
2019-04-28T17:40:45.022Z,87077.72
2019-04-28T17:43:11.870Z,87078.12
2019-04-28T17:45:38.643Z,87080.42
2019-04-28T17:48:05.608Z,87086.95
2019-04-28T17:50:32.481Z,87084.23
2019-04-28T17:52:59.208Z,87083.14
2019-04-28T17:55:26.074Z,87083.69
2019-04-28T17:57:52.974Z,87081.43
2019-04-28T18:00:19.689Z,87086.53
2019-04-28T18:02:47.389Z,87080.86
2019-04-28T18:05:14.291Z,87087.82
2019-04-28T18:07:42.490Z,87091.43
2019-04-28T18:10:09.492Z,87095.66
2019-04-28T18:12:36.202Z,87093.05
2019-04-28T18:15:06.373Z,87094.16
2019-04-28T18:17:33.279Z,87096.07
2019-04-28T18:20:00.030Z,87092.92
2019-04-28T18:22:26.807Z,87095.63
2019-04-28T18:24:53.705Z,87099.96
2019-04-28T18:27:20.456Z,87105.17
2019-04-28T18:29:47.164Z,87099.25
2019-04-28T18:32:14.040Z,87099.66
2019-04-28T18:34:40.833Z,87106.61
2019-04-28T18:37:07.570Z,87110.67
2019-04-28T18:39:34.477Z,87114.42
2019-04-28T18:42:01.820Z,87112.21
2019-04-28T18:44:28.557Z,87113.57
2019-04-28T18:46:55.415Z,87112.91
2019-04-28T18:49:22.221Z,87118.73
2019-04-28T18:51:49.009Z,87119.30
2019-04-28T18:54:15.885Z,87124.70
2019-04-28T18:56:42.580Z,87124.59
2019-04-28T18:59:09.353Z,87127.13
2019-04-28T19:01:36.446Z,87132.41
2019-04-28T19:04:03.173Z,87135.97
2019-04-28T19:06:29.911Z,87134.36
2019-04-28T19:08:56.774Z,87134.59
2019-04-28T19:11:23.556Z,87136.53
2019-04-28T19:13:50.366Z,87141.52
2019-04-28T19:16:17.282Z,87143.70
2019-04-28T19:18:44.024Z,87142.52
2019-04-28T19:21:10.786Z,87137.53
2019-04-28T19:23:37.702Z,87144.47
2019-04-28T19:26:04.555Z,87149.67
2019-04-28T19:28:31.278Z,87153.20
2019-04-28T19:30:58.145Z,87158.91
2019-04-28T19:33:24.867Z,87153.28
2019-04-28T19:35:51.817Z,87151.72
2019-04-28T19:38:18.678Z,87154.55
2019-04-28T19:40:45.422Z,87146.01
2019-04-28T19:43:12.180Z,87148.73
2019-04-28T19:45:39.039Z,87147.97
2019-04-28T19:48:05.785Z,87147.31
2019-04-28T19:50:32.519Z,87149.57
2019-04-28T19:52:59.377Z,87145.52
2019-04-28T19:55:26.126Z,87146.28
2019-04-28T19:57:52.835Z,87151.25
2019-04-28T20:00:20.559Z,87143.70
2019-04-28T20:02:47.315Z,87141.41
2019-04-28T20:05:14.050Z,87138.92
2019-04-28T20:07:41.086Z,87142.72
2019-04-28T20:10:07.981Z,87138.24
2019-04-28T20:12:34.723Z,87140.84
2019-04-28T20:15:01.798Z,87142.37
2019-04-28T20:17:28.606Z,87137.82
2019-04-28T20:19:55.338Z,87142.30
2019-04-28T20:22:22.188Z,87134.41
2019-04-28T20:24:48.923Z,87145.38
2019-04-28T20:27:15.646Z,87136.16
2019-04-28T20:29:42.520Z,87141.22
2019-04-28T20:32:09.258Z,87143.70
2019-04-28T20:34:36.035Z,87145.94
2019-04-28T20:37:02.884Z,87147.20
2019-04-28T20:39:29.632Z,87138.01
2019-04-28T20:41:56.348Z,87144.02
2019-04-28T20:44:23.750Z,87143.37
2019-04-28T20:46:50.513Z,87142.15
2019-04-28T20:49:17.232Z,87142.37
2019-04-28T20:51:44.053Z,87141.27
2019-04-28T20:54:10.793Z,87139.43
2019-04-28T20:56:37.519Z,87134.68
2019-04-28T20:59:04.367Z,87132.72
2019-04-28T21:01:33.935Z,87133.72
2019-04-28T21:04:00.699Z,87129.47
2019-04-28T21:06:27.495Z,87130.01
2019-04-28T21:08:54.220Z,87126.75
2019-04-28T21:11:21.907Z,87134.68
2019-04-28T21:13:48.810Z,87133.69
2019-04-28T21:16:15.532Z,87131.08
2019-04-28T21:18:42.345Z,87132.04
2019-04-28T21:21:09.126Z,87134.64
2019-04-28T21:23:35.850Z,87131.72
2019-04-28T21:26:02.598Z,87127.05
2019-04-28T21:28:29.384Z,87137.66
2019-04-28T21:30:56.155Z,87123.91
2019-04-28T21:33:22.913Z,87130.84
2019-04-28T21:35:49.748Z,87122.80
2019-04-28T21:38:16.518Z,87134.02
2019-04-28T21:40:43.237Z,87127.71
2019-04-28T21:43:10.056Z,87126.94
2019-04-28T21:45:36.795Z,87125.95
2019-04-28T21:48:03.538Z,87118.90
2019-04-28T21:50:30.383Z,87125.75
2019-04-28T21:52:57.121Z,87127.36
2019-04-28T21:55:23.859Z,87134.21
2019-04-28T21:57:50.692Z,87127.13
2019-04-28T22:00:21.647Z,87126.81
2019-04-28T22:02:48.370Z,87123.98
2019-04-28T22:05:15.218Z,87127.89
2019-04-28T22:07:41.937Z,87124.87
2019-04-28T22:10:08.878Z,87122.27
2019-04-28T22:12:35.773Z,87119.44
2019-04-28T22:15:05.086Z,87123.80
2019-04-28T22:17:31.820Z,87119.01
2019-04-28T22:19:58.748Z,87122.56
2019-04-28T22:22:25.486Z,87119.01
2019-04-28T22:24:52.239Z,87112.50
2019-04-28T22:27:19.095Z,87113.23
2019-04-28T22:29:45.822Z,87115.30
2019-04-28T22:32:12.525Z,87110.97
2019-04-28T22:34:39.388Z,87111.51
2019-04-28T22:37:06.128Z,87112.91
2019-04-28T22:39:32.875Z,87113.99
2019-04-28T22:41:59.751Z,87112.69
2019-04-28T22:44:26.496Z,87112.69
2019-04-28T22:46:53.229Z,87111.39
2019-04-28T22:49:20.161Z,87112.51
2019-04-28T22:51:46.906Z,87111.97
2019-04-28T22:54:13.629Z,87107.83
2019-04-28T22:56:40.494Z,87105.98
2019-04-28T22:59:07.249Z,87108.91
2019-04-28T23:01:34.018Z,87107.28
2019-04-28T23:04:00.914Z,87109.89
2019-04-28T23:06:27.835Z,87105.00
2019-04-28T23:08:54.683Z,87108.48
2019-04-28T23:11:21.520Z,87108.48
2019-04-28T23:13:48.280Z,87108.83
2019-04-28T23:16:14.982Z,87111.55
2019-04-28T23:18:41.928Z,87113.50
2019-04-28T23:21:08.667Z,87114.68
2019-04-28T23:23:35.403Z,87109.91
2019-04-28T23:26:03.146Z,87112.61
2019-04-28T23:28:30.025Z,87113.91
2019-04-28T23:30:56.781Z,87119.59
2019-04-28T23:33:23.657Z,87114.03
2019-04-28T23:35:50.485Z,87118.83
2019-04-28T23:38:17.237Z,87118.94
2019-04-28T23:40:44.616Z,87116.88
2019-04-28T23:43:11.347Z,87118.83
2019-04-28T23:45:38.056Z,87123.61
2019-04-28T23:48:04.943Z,87122.84
2019-04-28T23:50:31.664Z,87114.61
2019-04-28T23:52:58.434Z,87117.98
2019-04-28T23:55:25.225Z,87116.03
2019-04-28T23:57:51.995Z,87116.03
